Latest Weather Observations for Kurnell

IDN60801

Issued at 8:03 am EST Monday 27 April 2015 (issued every 30 minutes, with the page automatically refreshed every 10 minutes)

About weather observations | Map of weather stations | Latest weather observations for NSW | Other Formats
Station Details ID: 066043 Name: KURNELL AWS Lat: -34.00 Lon: 151.21 Height: 4.0 m
Data from the previous 72 hours. | See also: Recent months for locations in New South Wales
Date/Time
EST
Temp
°C
App
Temp
°C
Dew
Point
Rel
Hum
%
Delta-T
°C
Wind Press
QNH
hPa
Press
MSL
hPa
Rain
since 9 am
mm
Dir
 
Spd
km/h
Gust
km/h
Spd
kts
Gust
kts
27/08:00am - - - - - WSW 24 30 13 16 - - -
27/07:30am - - - - - WSW 24 30 13 16 - - -
27/07:00am - - - - - WSW 19 26 10 14 - - -
27/06:30am - - - - - WSW 26 32 14 17 - - -
27/06:00am - - - - - WSW 24 30 13 16 - - -
27/05:30am - - - - - W 22 28 12 15 - - -
27/05:00am - - - - - WSW 22 28 12 15 - - -
27/04:30am - - - - - W 20 24 11 13 - - -
27/04:00am - - - - - WSW 13 20 7 11 - - -
27/03:30am - - - - - WSW 15 19 8 10 - - -
27/03:00am - - - - - WSW 19 20 10 11 - - -
27/02:30am - - - - - WSW 17 20 9 11 - - -
27/02:00am - - - - - SW 19 24 10 13 - - -
27/01:30am - - - - - SW 20 28 11 15 - - -
27/01:00am - - - - - SSW 24 35 13 19 - - -
27/12:30am - - - - - SW 26 33 14 18 - - -
27/12:00am - - - - - SSW 9 11 5 6 - - -
 
Date/Time
EST
Temp
°C
App
Temp
°C
Dew
Point
Rel
Hum
%
Delta-T
°C
Wind Press
QNH
hPa
Press
MSL
hPa
Rain
since 9 am
mm
Dir
 
Spd
km/h
Gust
km/h
Spd
kts
Gust
kts
26/11:30pm - - - - - WSW 9 13 5 7 - - -
26/11:00pm - - - - - W 15 17 8 9 - - -
26/10:30pm - - - - - W 15 17 8 9 - - -
26/10:00pm - - - - - WSW 11 11 6 6 - - -
26/09:30pm - - - - - WSW 13 15 7 8 - - -
26/09:00pm - - - - - SW 17 22 9 12 - - -
26/08:30pm - - - - - WSW 19 24 10 13 - - -
26/08:00pm - - - - - SW 17 24 9 13 - - -
26/07:30pm - - - - - SW 22 33 12 18 - - -
26/07:00pm - - - - - SW 19 26 10 14 - - -
26/06:30pm - - - - - SW 26 33 14 18 - - -
26/06:00pm - - - - - SW 20 30 11 16 - - -
26/05:30pm - - - - - SSW 22 28 12 15 - - -
26/05:00pm - - - - - SW 17 26 9 14 - - -
26/04:30pm - - - - - SW 20 30 11 16 - - -
26/04:00pm - - - - - SW 26 35 14 19 - - -
26/03:30pm - - - - - SW 28 43 15 23 - - -
26/03:00pm - - - - - SW 28 35 15 19 - - -
26/02:30pm - - - - - WSW 33 43 18 23 - - -
26/02:00pm - - - - - WSW 28 37 15 20 - - -
26/01:30pm - - - - - SW 37 48 20 26 - - -
26/01:06pm - - - - - SW 37 56 20 30 - - -
26/01:00pm - - - - - SW 41 56 22 30 - - -
26/12:50pm - - - - - SW 35 54 19 29 - - -
26/12:30pm - - - - - SW 28 37 15 20 - - -
26/12:00pm - - - - - WSW 33 41 18 22 - - -
26/11:30am - - - - - WSW 32 41 17 22 - - -
26/11:00am - - - - - WSW 30 37 16 20 - - -
26/10:30am - - - - - W 30 35 16 19 - - -
26/10:00am - - - - - W 32 39 17 21 - - -
26/09:30am - - - - - W 30 37 16 20 - - -
26/09:00am - - - - - W 26 32 14 17 - - -
26/08:30am - - - - - W 24 28 13 15 - - -
26/08:00am - - - - - W 26 30 14 16 - - -
26/07:30am - - - - - WNW 30 33 16 18 - - -
26/07:00am - - - - - WNW 28 32 15 17 - - -
26/06:30am - - - - - W 24 30 13 16 - - -
26/06:00am - - - - - W 28 32 15 17 - - -
26/05:30am - - - - - W 28 33 15 18 - - -
26/05:00am - - - - - W 26 32 14 17 - - -
26/04:30am - - - - - W 28 32 15 17 - - -
26/04:00am - - - - - WNW 28 33 15 18 - - -
26/03:30am - - - - - SW 13 17 7 9 - - -
26/03:00am - - - - - SSW 13 15 7 8 - - -
26/02:30am - - - - - W 20 26 11 14 - - -
26/02:00am - - - - - NW 32 35 17 19 - - -
26/01:30am - - - - - NW 30 39 16 21 - - -
26/01:00am - - - - - WNW 28 33 15 18 - - -
26/12:30am - - - - - WNW 32 33 17 18 - - -
26/12:00am - - - - - WNW 20 24 11 13 - - -
 
Date/Time
EST
Temp
°C
App
Temp
°C
Dew
Point
Rel
Hum
%
Delta-T
°C
Wind Press
QNH
hPa
Press
MSL
hPa
Rain
since 9 am
mm
Dir
 
Spd
km/h
Gust
km/h
Spd
kts
Gust
kts
25/11:30pm - - - - - W 24 28 13 15 - - -
25/11:00pm - - - - - SW 17 19 9 10 - - -
25/10:30pm - - - - - S 13 17 7 9 - - -
25/10:00pm - - - - - S 19 28 10 15 - - -
25/09:30pm - - - - - SW 17 26 9 14 - - -
25/09:00pm - - - - - W 22 33 12 18 - - -
25/08:36pm - - - - - W 22 37 12 20 - - -
25/08:30pm - - - - - WSW 13 19 7 10 - - -
25/08:00pm - - - - - W 35 50 19 27 - - -
25/07:53pm - - - - - WSW 33 50 18 27 - - -
25/07:30pm - - - - - SSW 30 48 16 26 - - -
25/07:29pm - - - - - SW 28 48 15 26 - - -
25/07:00pm - - - - - SW 22 39 12 21 - - -
25/06:30pm - - - - - E 17 24 9 13 - - -
25/06:00pm - - - - - ENE 17 20 9 11 - - -
25/05:30pm - - - - - E 17 28 9 15 - - -
25/05:00pm - - - - - WNW 30 48 16 26 - - -
25/04:55pm - - - - - WSW 22 48 12 26 - - -
25/04:30pm - - - - - S 15 19 8 10 - - -
25/04:00pm - - - - - ESE 13 17 7 9 - - -
25/03:30pm - - - - - ENE 17 19 9 10 - - -
25/03:00pm - - - - - E 20 24 11 13 - - -
25/02:30pm - - - - - E 17 20 9 11 - - -
25/02:00pm - - - - - ENE 17 19 9 10 - - -
25/01:30pm - - - - - ENE 15 17 8 9 - - -
25/01:00pm - - - - - ENE 6 7 3 4 - - -
25/12:30pm - - - - - N 2 7 1 4 - - -
25/12:00pm - - - - - NW 7 9 4 5 - - -
25/11:30am - - - - - NW 9 9 5 5 - - -
25/11:00am - - - - - NNW 11 13 6 7 - - -
25/10:30am - - - - - NNW 9 11 5 6 - - -
25/10:00am - - - - - NNW 13 15 7 8 - - -
25/09:30am - - - - - NNW 15 19 8 10 - - -
25/09:00am - - - - - NW 19 20 10 11 - - -
25/08:30am - - - - - NNW 19 24 10 13 - - -
25/08:00am - - - - - N 13 19 7 10 - - -
25/07:30am - - - - - WNW 11 15 6 8 - - -
25/07:00am - - - - - WNW 11 13 6 7 - - -
25/06:30am - - - - - W 11 13 6 7 - - -
25/06:00am - - - - - WNW 19 22 10 12 - - -
25/05:30am - - - - - NW 15 17 8 9 - - -
25/05:00am - - - - - NW 11 15 6 8 - - -
25/04:30am - - - - - WNW 11 13 6 7 - - -
25/04:00am - - - - - WNW 11 15 6 8 - - -
25/03:30am - - - - - WSW 7 9 4 5 - - -
25/03:00am - - - - - WNW 7 9 4 5 - - -
25/02:30am - - - - - NW 11 13 6 7 - - -
25/02:00am - - - - - WNW 9 13 5 7 - - -
25/01:30am - - - - - W 4 9 2 5 - - -
25/01:00am - - - - - WSW 7 7 4 4 - - -
25/12:30am - - - - - W 9 11 5 6 - - -
25/12:00am - - - - - CALM 0 0 0 0 - - -
 
Date/Time
EST
Temp
°C
App
Temp
°C
Dew
Point
Rel
Hum
%
Delta-T
°C
Wind Press
QNH
hPa
Press
MSL
hPa
Rain
since 9 am
mm
Dir
 
Spd
km/h
Gust
km/h
Spd
kts
Gust
kts
24/11:30pm - - - - - NW 7 9 4 5 - - -
24/11:00pm - - - - - NNW 9 11 5 6 - - -
24/10:30pm - - - - - NW 11 13 6 7 - - -
24/10:00pm - - - - - CALM 0 0 0 0 - - -
24/09:30pm - - - - - W 6 7 3 4 - - -
24/09:00pm - - - - - WSW 7 9 4 5 - - -
24/08:30pm - - - - - WSW 11 13 6 7 - - -
24/08:00pm - - - - - NW 7 9 4 5 - - -
24/07:30pm - - - - - WSW 2 9 1 5 - - -
24/07:00pm - - - - - WSW 6 9 3 5 - - -
24/06:30pm - - - - - CALM 0 0 0 0 - - -
24/06:00pm - - - - - CALM 0 0 0 0 - - -
24/05:30pm - - - - - SSE 9 9 5 5 - - -
24/05:00pm - - - - - WSW 11 15 6 8 - - -
24/04:30pm - - - - - NW 9 13 5 7 - - -
24/04:00pm - - - - - ENE 9 13 5 7 - - -
24/03:30pm - - - - - CALM 0 6 0 3 - - -
24/03:00pm - - - - - E 9 15 5 8 - - -
24/02:30pm - - - - - ENE 9 11 5 6 - - -
24/02:00pm - - - - - NE 7 11 4 6 - - -
24/01:30pm - - - - - E 13 17 7 9 - - -
24/01:00pm - - - - - ENE 15 17 8 9 - - -
24/12:30pm - - - - - N 9 11 5 6 - - -
24/12:00pm - - - - - NNW 11 13 6 7 - - -
24/11:30am - - - - - CALM 0 2 0 1 - - -
24/11:00am - - - - - NW 4 7 2 4 - - -
24/10:30am - - - - - WNW 9 13 5 7 - - -
24/10:00am - - - - - NW 20 26 11 14 - - -
24/09:30am - - - - - NNW 13 17 7 9 - - -
24/09:00am - - - - - NW 15 19 8 10 - - -
24/08:30am - - - - - NW 13 15 7 8 - - -

Other Formats:

Comma delimited format used in spreadsheet applications
http://www.bom.gov.au/fwo/IDN60801/IDN60801.95756.axf

JavaScript Object Notation format (JSON) in row-major order
http://www.bom.gov.au/fwo/IDN60801/IDN60801.95756.json